Time;durP1;ratioP1;P1;durP2;ratioP2;P2;SDS_P1;SDS_P2;PMS_P1;PMS_P2;Temp;Humidity;BMP_temperature;BMP_pressure;BME280_temperature;BME280_humidity;BME280_pressure;Samples;Min_cycle;Max_cycle;Signal;HPM_P1;HPM_P2
2021/09/27 00:00:27;;;;;;;16.48;10.05;;;;;;;9.45;94.18;91094.84;5032390;28;20029;-89
2021/09/27 00:02:53;;;;;;;14.48;9.15;;;;;;;9.55;93.80;91090.03;5047399;28;20033;-90
2021/09/27 00:05:19;;;;;;;15.57;9.63;;;;;;;9.54;94.32;91091.13;5031789;28;20171;-89
2021/09/27 00:07:44;;;;;;;15.30;9.32;;;;;;;9.53;93.43;91100.00;5048566;28;20029;-88
2021/09/27 00:10:12;;;;;;;26.23;8.98;;;;;;;9.42;93.24;91091.03;5048471;28;20040;-90
2021/09/27 00:12:37;;;;;;;22.80;8.82;;;;;;;9.57;92.09;91092.31;5033056;28;20033;-89
2021/09/27 00:15:06;;;;;;;15.02;8.57;;;;;;;9.40;92.96;91092.44;5045462;28;20036;-89
2021/09/27 00:17:31;;;;;;;12.45;8.02;;;;;;;9.37;93.18;91093.09;5015739;28;20372;-90
2021/09/27 00:19:57;;;;;;;12.65;8.10;;;;;;;9.50;92.71;91097.25;5008370;28;20029;-90
2021/09/27 00:22:23;;;;;;;13.98;9.02;;;;;;;9.34;93.27;91090.03;5032595;28;20526;-90
2021/09/27 00:24:48;;;;;;;16.25;9.27;;;;;;;9.47;94.22;91088.28;5017832;28;20025;-90
2021/09/27 00:27:14;;;;;;;17.95;9.50;;;;;;;9.46;93.85;91091.94;5012087;28;20025;-90
2021/09/27 00:29:39;;;;;;;16.70;10.52;;;;;;;9.43;94.37;91079.56;5025434;28;20398;-89
2021/09/27 00:32:05;;;;;;;14.55;8.80;;;;;;;9.49;94.28;91080.13;5033045;28;20742;-89
2021/09/27 00:34:30;;;;;;;16.73;9.77;;;;;;;9.47;94.66;91075.25;5020493;28;20500;-90
2021/09/27 00:36:56;;;;;;;15.13;9.35;;;;;;;9.44;94.39;91070.69;5011748;28;20465;-89
2021/09/27 00:39:21;;;;;;;15.00;8.40;;;;;;;9.53;93.97;91076.56;5021296;28;20033;-89
2021/09/27 00:41:46;;;;;;;10.57;7.30;;;;;;;9.55;92.43;91079.63;5048309;28;20022;-89
2021/09/27 00:44:12;;;;;;;15.43;9.70;;;;;;;9.41;94.66;91071.31;5023219;28;20034;-90
2021/09/27 00:46:37;;;;;;;15.88;9.60;;;;;;;9.62;93.83;91067.97;5012890;28;20022;-89
2021/09/27 00:49:03;;;;;;;15.10;9.40;;;;;;;9.48;94.50;91055.97;5011745;28;20182;-90
2021/09/27 00:51:38;;;;;;;14.88;8.07;;;;;;;9.53;92.47;91070.63;5028009;28;20438;-90
2021/09/27 00:54:19;;;;;;;32.35;7.72;;;;;;;9.29;91.93;91071.22;5017291;28;20029;-89
2021/09/27 00:56:51;;;;;;;11.57;7.65;;;;;;;9.13;93.43;91067.66;5031376;28;20044;-89
2021/09/27 00:59:16;;;;;;;12.98;7.70;;;;;;;9.26;93.56;91071.88;5024564;28;20053;-89
2021/09/27 01:01:42;;;;;;;15.75;8.80;;;;;;;9.24;93.74;91063.63;5030231;28;20057;-90
2021/09/27 01:04:08;;;;;;;15.18;9.80;;;;;;;9.21;94.48;91059.03;5014196;28;20411;-89
2021/09/27 01:06:56;;;;;;;11.52;7.00;;;;;;;9.32;93.30;91065.41;5031298;28;20057;-89
2021/09/27 01:09:31;;;;;;;13.73;6.97;;;;;;;9.36;91.96;91068.13;5027841;28;20033;-90
2021/09/27 01:11:56;;;;;;;9.68;6.60;;;;;;;9.31;91.24;91064.63;5038378;28;20101;-89
2021/09/27 01:14:34;;;;;;;14.25;6.90;;;;;;;9.10;91.44;91067.22;5031533;28;20022;-90
2021/09/27 01:17:07;;;;;;;12.15;7.28;;;;;;;9.05;92.85;91062.19;5030926;28;20026;-89
2021/09/27 01:19:41;;;;;;;12.55;7.80;;;;;;;9.18;92.94;91059.66;5030564;28;20402;-90
2021/09/27 01:22:44;;;;;;;14.45;8.88;;;;;;;9.31;94.68;91064.63;5047157;28;20114;-91
2021/09/27 01:25:23;;;;;;;14.00;8.60;;;;;;;9.14;94.37;91067.34;5031268;28;20024;-89
2021/09/27 01:27:58;;;;;;;14.52;7.35;;;;;;;9.05;93.91;91059.59;5047385;28;20522;-90
2021/09/27 01:30:26;;;;;;;;;;;;;;;9.32;93.18;91060.97;5031622;28;20033;-89
2021/09/27 01:33:02;;;;;;;14.45;7.95;;;;;;;9.08;94.21;91061.56;5030666;28;19913;-89
2021/09/27 01:35:31;;;;;;;7.53;5.30;;;;;;;8.97;92.53;91057.78;5029730;28;20029;-89
2021/09/27 01:38:26;;;;;;;90.70;5.57;;;;;;;8.81;91.37;91062.78;5047134;28;20799;-89
2021/09/27 01:41:10;;;;;;;7.75;5.55;;;;;;;8.68;92.74;91053.34;5046716;28;20375;-90
2021/09/27 01:43:39;;;;;;;11.90;6.72;;;;;;;8.59;93.35;91056.00;5031540;28;20036;-89
2021/09/27 01:46:15;;;;;;;13.27;6.65;;;;;;;8.58;93.30;91059.66;5030129;28;20025;-89
2021/09/27 01:49:20;;;;;;;9.20;6.10;;;;;;;8.65;93.19;91048.78;5030424;28;20021;-90
2021/09/27 01:51:52;;;;;;;51.25;5.75;;;;;;;8.58;93.50;91054.44;4973477;28;20092;-89
2021/09/27 01:54:36;;;;;;;9.55;6.05;;;;;;;8.72;93.89;91069.06;4988893;28;20038;-90
2021/09/27 01:57:03;;;;;;;12.73;6.82;;;;;;;8.65;94.51;91061.75;5029226;28;20483;-89
2021/09/27 01:59:52;;;;;;;10.65;6.00;;;;;;;8.81;94.30;91056.81;5058254;28;20029;-89
2021/09/27 02:02:41;;;;;;;9.82;6.28;;;;;;;8.87;94.83;91063.38;5018865;28;20121;-89
2021/09/27 02:05:20;;;;;;;14.95;5.85;;;;;;;8.68;93.86;91048.16;4991121;28;20044;-89
2021/09/27 02:08:12;;;;;;;9.35;5.97;;;;;;;8.98;94.05;91042.97;5014070;28;20034;-90
2021/09/27 02:11:05;;;;;;;11.25;5.72;;;;;;;8.79;93.62;91048.56;5018299;28;20046;-89
2021/09/27 02:14:03;;;;;;;11.45;5.72;;;;;;;8.69;93.27;91051.50;5016141;28;20041;-87
2021/09/27 02:16:35;;;;;;;16.08;6.45;;;;;;;8.52;93.99;91049.75;5022538;28;20056;-89
2021/09/27 02:19:28;;;;;;;8.40;5.45;;;;;;;8.44;94.37;91043.50;5029174;28;20113;-90
2021/09/27 02:21:55;;;;;;;9.40;5.65;;;;;;;8.52;93.78;91037.53;5030415;28;20061;-88
2021/09/27 02:24:29;;;;;;;8.63;5.32;;;;;;;8.44;94.13;91043.50;5012562;28;20095;-89
2021/09/27 02:26:54;;;;;;;10.80;5.93;;;;;;;8.58;94.10;91049.25;5013372;28;20030;-88
2021/09/27 02:29:20;;;;;;;10.07;5.53;;;;;;;8.76;94.80;91044.78;5031042;28;20511;-90
2021/09/27 02:31:48;;;;;;;7.75;5.28;;;;;;;8.75;93.59;91047.66;5013095;28;20399;-89
2021/09/27 02:34:19;;;;;;;10.05;5.95;;;;;;;8.71;94.16;91046.78;5045856;28;20438;-90
2021/09/27 02:36:52;;;;;;;10.98;6.13;;;;;;;8.67;95.06;91048.47;5031425;28;20360;-89
2021/09/27 02:40:13;;;;;;;10.20;6.28;;;;;;;8.69;95.60;91046.31;5013739;28;20029;-89
2021/09/27 02:42:43;;;;;;;9.85;6.18;;;;;;;8.74;94.84;91038.34;4950065;29;20146;-89
2021/09/27 02:45:09;;;;;;;10.45;6.32;;;;;;;8.84;95.81;91040.59;5012792;28;20044;-89
2021/09/27 02:47:39;;;;;;;7.97;5.32;;;;;;;8.83;95.33;91049.47;5033506;28;20029;-90
2021/09/27 02:50:06;;;;;;;12.32;6.05;;;;;;;8.88;94.83;91048.53;5033602;28;20021;-90
2021/09/27 02:52:31;;;;;;;9.52;5.88;;;;;;;8.78;95.62;91049.66;5032963;28;20513;-91
2021/09/27 02:55:00;;;;;;;8.35;5.47;;;;;;;8.62;95.77;91049.38;5049697;28;20036;-89
2021/09/27 02:57:41;;;;;;;9.35;5.13;;;;;;;8.59;94.48;91045.59;5049809;28;20403;-91
2021/09/27 03:00:11;;;;;;;13.98;5.40;;;;;;;8.52;93.60;91039.38;5034284;28;20030;-90
2021/09/27 03:02:41;;;;;;;7.45;4.95;;;;;;;8.58;94.03;91035.50;5033115;28;20426;-88
2021/09/27 03:05:39;;;;;;;8.25;5.22;;;;;;;8.63;93.85;91034.59;5093416;23;20028;-87
2021/09/27 03:08:29;;;;;;;11.98;5.60;;;;;;;8.46;94.29;91030.97;4993911;28;20043;-88
2021/09/27 03:11:37;;;;;;;11.52;5.90;;;;;;;8.60;95.37;91034.13;4971942;28;20043;-87
2021/09/27 03:14:35;;;;;;;10.38;6.20;;;;;;;9.00;96.30;91022.63;5013228;28;20514;-87
2021/09/27 03:17:07;;;;;;;10.75;6.97;;;;;;;8.88;96.65;91027.75;5037105;28;20045;-88
2021/09/27 03:19:44;;;;;;;7.82;5.00;;;;;;;8.93;93.89;91022.34;5041774;28;20030;-87
2021/09/27 03:22:16;;;;;;;11.02;4.93;;;;;;;8.74;93.83;91009.78;5013845;28;20499;-87
2021/09/27 03:25:09;;;;;;;8.60;5.30;;;;;;;8.68;94.00;91008.44;5049983;28;20056;-88
2021/09/27 03:27:38;;;;;;;8.07;5.25;;;;;;;8.53;93.77;91013.06;5053476;28;20021;-88
2021/09/27 03:30:23;;;;;;;31.38;4.68;;;;;;;8.40;93.39;91008.09;5032853;28;20052;-87
2021/09/27 03:32:54;;;;;;;79.13;4.80;;;;;;;8.29;91.79;91011.00;5016970;28;20522;-88
2021/09/27 03:35:34;;;;;;;16.90;4.30;;;;;;;8.26;92.73;91005.66;5032526;28;20032;-87
2021/09/27 03:38:02;;;;;;;43.03;3.92;;;;;;;8.11;93.80;91014.72;5032737;28;20071;-87
2021/09/27 03:40:52;;;;;;;45.90;5.00;;;;;;;8.06;95.20;91013.06;5032939;28;20087;-87
2021/09/27 03:43:24;;;;;;;6.22;4.00;;;;;;;8.11;94.51;91018.06;5033508;28;20112;-87
2021/09/27 03:46:05;;;;;;;6.68;4.40;;;;;;;8.13;94.37;91010.75;5032270;28;20103;-87
2021/09/27 03:49:10;;;;;;;8.20;5.03;;;;;;;8.18;95.14;91015.00;5037594;28;20421;-87
2021/09/27 03:51:50;;;;;;;6.32;4.13;;;;;;;8.20;94.53;91017.28;4979262;28;20129;-87
2021/09/27 03:54:27;;;;;;;10.27;4.85;;;;;;;8.14;94.92;91017.47;5000298;28;20036;-87
2021/09/27 03:57:01;;;;;;;8.57;4.80;;;;;;;8.19;95.64;91021.72;5016245;28;20114;-87
2021/09/27 03:59:52;;;;;;;8.73;4.80;;;;;;;8.30;95.42;91016.94;5000043;28;20021;-88
2021/09/27 04:02:45;;;;;;;10.82;5.63;;;;;;;8.50;95.50;91018.88;5015998;28;20041;-87
2021/09/27 04:05:14;;;;;;;8.45;5.03;;;;;;;8.35;95.95;91016.78;5013802;28;20033;-87
2021/09/27 04:07:54;;;;;;;10.30;5.78;;;;;;;8.46;96.70;91015.41;5034016;28;20026;-87
2021/09/27 04:10:25;;;;;;;8.82;5.13;;;;;;;8.36;95.86;91016.47;5032600;28;20021;-87
2021/09/27 04:13:13;;;;;;;6.07;4.35;;;;;;;8.30;95.61;91022.91;5012717;28;20026;-87
2021/09/27 04:15:44;;;;;;;64.13;5.47;;;;;;;8.22;93.69;91020.34;5027144;28;20025;-87
2021/09/27 04:18:14;;;;;;;15.90;8.55;;;;;;;8.29;94.60;91015.44;5028057;28;20034;-87
2021/09/27 04:20:57;;;;;;;14.27;8.35;;;;;;;8.25;95.03;91011.94;5002122;28;20538;-87
2021/09/27 04:23:40;;;;;;;10.15;6.10;;;;;;;8.15;95.34;91016.38;5016674;28;20395;-88
2021/09/27 04:26:16;;;;;;;9.95;5.93;;;;;;;8.17;95.29;91015.31;5015386;28;20037;-88
2021/09/27 04:29:07;;;;;;;9.40;6.53;;;;;;;8.18;95.67;91014.25;5015592;28;20038;-87
2021/09/27 04:31:47;;;;;;;10.45;5.55;;;;;;;8.18;95.13;91009.06;5033229;28;20551;-87
2021/09/27 04:34:44;;;;;;;8.32;4.47;;;;;;;8.19;95.39;91015.75;5051746;28;20033;-87
2021/09/27 04:37:10;;;;;;;9.85;5.13;;;;;;;8.31;96.36;91006.25;4990065;28;20073;-88
2021/09/27 04:39:36;;;;;;;9.15;4.78;;;;;;;8.32;95.88;91012.22;4998312;28;20401;-87
2021/09/27 04:42:39;;;;;;;8.60;4.55;;;;;;;8.22;95.03;91009.94;5019214;28;20501;-87
2021/09/27 04:45:39;;;;;;;6.57;4.40;;;;;;;8.20;95.43;91006.91;5051833;28;20060;-88
2021/09/27 04:48:08;;;;;;;7.43;4.57;;;;;;;8.31;95.38;91013.28;5016941;28;20021;-87
2021/09/27 04:50:47;;;;;;;9.02;4.47;;;;;;;8.26;94.87;91019.41;5032856;28;20021;-88
2021/09/27 04:53:41;;;;;;;6.90;4.35;;;;;;;8.24;95.67;91016.38;5029141;28;20104;-86
2021/09/27 04:56:25;;;;;;;9.13;5.05;;;;;;;8.26;96.17;91021.25;5031556;28;20032;-87
2021/09/27 04:59:18;;;;;;;7.63;4.88;;;;;;;8.30;96.33;91024.72;5024314;28;20091;-87
2021/09/27 05:01:55;;;;;;;7.30;4.80;;;;;;;8.30;96.04;91019.53;5051574;28;20041;-87
2021/09/27 05:04:43;;;;;;;8.98;5.15;;;;;;;8.27;96.03;91020.16;5018574;28;20048;-88
2021/09/27 05:07:27;;;;;;;9.20;5.32;;;;;;;8.56;96.65;91012.44;5018297;28;20517;-87
2021/09/27 05:10:09;;;;;;;8.20;5.25;;;;;;;8.48;95.65;91013.25;5031441;28;20468;-88
2021/09/27 05:12:56;;;;;;;7.38;4.20;;;;;;;8.35;94.49;91009.75;5011822;28;20034;-87
2021/09/27 05:16:03;;;;;;;6.50;4.35;;;;;;;8.22;94.29;91010.72;5026676;28;20022;-88
2021/09/27 05:18:36;;;;;;;7.32;3.88;;;;;;;8.19;94.63;91007.97;4993211;28;20490;-88
2021/09/27 05:21:14;;;;;;;6.47;4.45;;;;;;;8.24;94.94;91008.56;4983592;28;20033;-87
2021/09/27 05:23:59;;;;;;;9.80;5.20;;;;;;;8.27;94.98;91007.97;5013587;28;20100;-87
2021/09/27 05:26:37;;;;;;;8.32;6.07;;;;;;;8.29;94.85;90999.84;5018619;28;20029;-87
2021/09/27 05:29:24;;;;;;;28.98;15.40;;;;;;;8.28;94.83;91006.88;5017823;28;20021;-87
2021/09/27 05:32:30;;;;;;;15.20;8.43;;;;;;;8.24;97.71;91007.81;5034095;28;20068;-88
2021/09/27 05:35:17;;;;;;;10.43;6.57;;;;;;;8.28;97.50;91003.53;4995336;28;20037;-87
2021/09/27 05:37:47;;;;;;;10.63;5.80;;;;;;;8.41;98.05;91002.59;5011704;28;20029;-87
2021/09/27 05:40:32;;;;;;;9.75;5.40;;;;;;;8.52;97.18;90995.97;5027654;28;20018;-88
2021/09/27 05:43:10;;;;;;;12.77;6.38;;;;;;;8.76;97.22;90999.81;4994213;28;20050;-87
2021/09/27 05:46:05;;;;;;;9.35;5.95;;;;;;;8.63;97.13;91008.63;4998789;28;20029;-88
2021/09/27 05:48:36;;;;;;;11.02;5.45;;;;;;;8.66;97.39;91005.38;5007258;28;20018;-87
2021/09/27 05:51:16;;;;;;;12.57;6.30;;;;;;;8.64;97.21;91000.50;5027566;28;20021;-88
2021/09/27 05:54:18;;;;;;;10.13;5.75;;;;;;;8.85;97.50;91000.53;4994606;28;20021;-88
2021/09/27 05:57:08;;;;;;;11.38;5.43;;;;;;;8.77;96.66;91004.72;5001841;28;20139;-87
2021/09/27 05:59:52;;;;;;;6.82;4.93;;;;;;;8.76;95.27;91005.78;4995502;28;20483;-87
2021/09/27 06:02:27;;;;;;;9.85;5.80;;;;;;;8.77;95.04;91006.56;5031774;28;20091;-88
2021/09/27 06:05:19;;;;;;;7.97;5.25;;;;;;;8.83;95.09;91007.88;5030580;28;20032;-87
2021/09/27 06:08:21;;;;;;;7.65;4.72;;;;;;;9.01;94.63;91006.72;5030538;28;20099;-87
2021/09/27 06:10:58;;;;;;;10.18;4.68;;;;;;;8.89;94.27;91011.06;5035812;28;20037;-88
2021/09/27 06:13:32;;;;;;;10.30;5.20;;;;;;;8.86;94.72;91008.00;5010945;28;20049;-87
2021/09/27 06:16:23;;;;;;;7.05;5.20;;;;;;;8.93;94.16;91012.72;5010174;28;20094;-87
2021/09/27 06:19:03;;;;;;;8.02;4.38;;;;;;;8.99;94.40;91021.88;5046395;28;20029;-87
2021/09/27 06:21:35;;;;;;;6.47;3.75;;;;;;;9.09;93.62;91020.75;5035546;28;20028;-88
2021/09/27 06:24:32;;;;;;;6.63;4.10;;;;;;;9.00;93.51;91012.97;5031266;28;20097;-88
2021/09/27 06:27:09;;;;;;;7.07;4.40;;;;;;;8.99;94.18;91021.88;5014737;28;20034;-87
2021/09/27 06:30:02;;;;;;;12.15;4.35;;;;;;;9.07;94.69;91013.25;5031493;28;20057;-86
2021/09/27 06:32:55;;;;;;;7.53;4.60;;;;;;;9.15;94.60;91008.31;5021663;28;20064;-87
2021/09/27 06:35:23;;;;;;;5.22;4.00;;;;;;;9.21;94.44;91004.44;5053064;28;20037;-88
2021/09/27 06:37:49;;;;;;;6.57;4.55;;;;;;;9.25;94.50;91005.31;5025253;28;20073;-89
2021/09/27 06:40:15;;;;;;;9.77;5.20;;;;;;;9.32;94.89;91001.13;5025987;28;20032;-87
2021/09/27 06:42:41;;;;;;;7.82;4.78;;;;;;;9.41;95.39;91006.28;5013700;28;20367;-87
2021/09/27 06:45:07;;;;;;;7.55;4.78;;;;;;;9.46;95.08;91013.88;5008361;28;20033;-87
2021/09/27 06:47:32;;;;;;;9.98;5.28;;;;;;;9.91;96.15;91008.00;5017138;28;20176;-87
2021/09/27 06:50:00;;;;;;;8.85;4.68;;;;;;;9.81;95.83;91009.16;5007369;28;20108;-87
2021/09/27 06:52:25;;;;;;;7.32;4.85;;;;;;;9.94;96.57;91007.38;5002371;28;20104;-88
2021/09/27 06:54:51;;;;;;;9.48;5.10;;;;;;;9.86;95.19;91016.03;5026065;28;20029;-87
2021/09/27 06:57:16;;;;;;;11.63;5.15;;;;;;;9.85;96.14;90998.88;5000849;28;20463;-87
2021/09/27 06:59:42;;;;;;;10.55;5.75;;;;;;;9.93;95.98;91005.06;5035145;28;20048;-87
2021/09/27 07:02:07;;;;;;;10.73;6.25;;;;;;;10.15;98.02;91006.56;5003761;28;20506;-87
2021/09/27 07:04:33;;;;;;;9.15;5.53;;;;;;;10.19;97.55;91002.22;4998023;28;20083;-87
2021/09/27 07:06:58;;;;;;;10.13;5.70;;;;;;;10.22;97.19;91006.78;5021039;28;20448;-88
2021/09/27 07:09:24;;;;;;;12.02;5.50;;;;;;;10.24;95.79;91009.81;5036886;28;20394;-88
2021/09/27 07:11:49;;;;;;;8.93;6.07;;;;;;;10.35;96.08;91007.59;5036178;28;20036;-87
2021/09/27 07:14:14;;;;;;;9.23;5.45;;;;;;;10.43;96.12;91007.50;5000762;28;20033;-87
2021/09/27 07:16:41;;;;;;;11.43;6.68;;;;;;;10.64;98.03;91007.41;5003501;28;20097;-88
2021/09/27 07:19:07;;;;;;;10.27;6.82;;;;;;;10.84;97.97;91002.41;5017409;28;20052;-88
2021/09/27 07:21:33;;;;;;;10.13;6.75;;;;;;;10.96;97.41;90997.94;5033431;28;20025;-87
2021/09/27 07:23:59;;;;;;;10.90;5.70;;;;;;;10.98;96.82;91000.22;5009431;28;20022;-87
2021/09/27 07:26:26;;;;;;;9.45;5.60;;;;;;;11.01;96.52;91000.31;4993678;28;20037;-88
2021/09/27 07:28:53;;;;;;;10.23;5.93;;;;;;;11.08;96.35;91004.25;5015269;28;20483;-87
2021/09/27 07:31:20;;;;;;;7.65;5.15;;;;;;;11.18;95.51;91003.78;4999528;28;20471;-87
2021/09/27 07:33:46;;;;;;;10.30;5.70;;;;;;;11.22;95.98;91004.66;5030282;28;20030;-87
2021/09/27 07:36:11;;;;;;;11.57;5.38;;;;;;;11.29;95.88;91004.84;5000248;28;20505;-87
2021/09/27 07:38:37;;;;;;;8.88;5.30;;;;;;;11.39;94.83;90996.56;5028526;28;20055;-88
2021/09/27 07:41:02;;;;;;;6.32;4.43;;;;;;;11.51;94.39;91000.22;5034125;28;20021;-87
2021/09/27 07:43:28;;;;;;;7.32;4.45;;;;;;;11.63;92.80;91002.81;5019353;28;20031;-87
2021/09/27 07:45:53;;;;;;;7.15;4.35;;;;;;;11.67;92.04;91003.69;5000111;28;20136;-88
2021/09/27 07:48:19;;;;;;;8.80;4.20;;;;;;;11.72;89.73;91006.78;4983406;28;20398;-87
2021/09/27 07:50:48;;;;;;;11.77;4.60;;;;;;;11.87;91.85;91004.59;5032418;28;20438;-87
2021/09/27 07:53:13;;;;;;;6.60;3.88;;;;;;;12.01;90.37;90996.38;4983637;28;20034;-88
2021/09/27 07:55:39;;;;;;;7.10;4.07;;;;;;;12.20;89.03;91002.47;4999548;28;20040;-87
2021/09/27 07:58:04;;;;;;;8.13;3.90;;;;;;;12.27;86.07;90999.28;4997827;28;20064;-88
2021/09/27 08:00:30;;;;;;;5.47;3.50;;;;;;;12.27;84.90;90999.28;5016056;28;20041;-87
2021/09/27 08:02:55;;;;;;;6.40;4.45;;;;;;;12.46;88.62;91009.09;5022330;28;20179;-88
2021/09/27 08:05:23;;;;;;;8.52;4.00;;;;;;;12.63;85.52;91006.13;4991328;28;20026;-87
2021/09/27 08:07:48;;;;;;;6.15;3.85;;;;;;;12.71;85.55;90998.47;5000311;28;20029;-88
2021/09/27 08:10:14;;;;;;;8.13;4.32;;;;;;;12.76;85.39;91004.22;5033001;28;20036;-87
2021/09/27 08:12:40;;;;;;;7.65;3.72;;;;;;;12.85;82.56;91002.16;5007325;28;20504;-87
2021/09/27 08:15:08;;;;;;;6.80;3.75;;;;;;;13.01;82.40;91001.41;4998880;28;20029;-87
2021/09/27 08:17:34;;;;;;;5.07;3.53;;;;;;;12.96;81.69;91007.63;5016365;28;20032;-87
2021/09/27 08:20:01;;;;;;;7.07;3.60;;;;;;;12.97;80.26;91000.53;5013952;28;20048;-87
2021/09/27 08:22:26;;;;;;;5.72;3.67;;;;;;;13.08;80.69;91002.31;5017513;28;20065;-87
2021/09/27 08:24:52;;;;;;;5.63;3.42;;;;;;;13.15;78.85;90999.09;5015059;28;20064;-87
2021/09/27 08:27:17;;;;;;;7.22;3.55;;;;;;;13.26;78.20;91010.56;5031295;28;20034;-87
2021/09/27 08:29:43;;;;;;;6.65;3.60;;;;;;;13.28;79.97;91003.13;5019284;28;20032;-87
2021/09/27 08:32:08;;;;;;;4.68;3.55;;;;;;;13.36;79.84;91009.28;5047176;28;20036;-87
2021/09/27 08:34:33;;;;;;;4.88;3.10;;;;;;;13.41;78.36;91014.25;5029498;28;20021;-88
2021/09/27 08:36:59;;;;;;;5.60;3.30;;;;;;;13.48;77.10;91011.03;5015842;28;20030;-87
2021/09/27 08:39:25;;;;;;;6.53;3.15;;;;;;;13.57;76.14;91014.22;4998920;28;20541;-87
2021/09/27 08:41:54;;;;;;;4.38;2.50;;;;;;;13.58;75.45;91002.63;5014664;28;20036;-87
2021/09/27 08:44:19;;;;;;;4.32;2.92;;;;;;;13.65;75.37;91008.00;5025641;28;20445;-88
2021/09/27 08:46:55;;;;;;;5.75;3.05;;;;;;;13.81;76.58;91008.69;5039397;28;20025;-87
2021/09/27 08:50:10;;;;;;;5.22;2.80;;;;;;;13.83;75.54;91022.22;5008937;28;20024;-87
2021/09/27 08:52:36;;;;;;;;;;;;;;;14.00;74.31;91015.06;5030591;28;20041;-88
2021/09/27 08:55:05;;;;;;;6.65;3.00;;;;;;;14.01;74.71;91014.69;5032784;28;19923;-87
2021/09/27 08:57:37;;;;;;;3.40;2.40;;;;;;;14.01;73.62;91012.06;5011989;28;20022;-87
2021/09/27 09:00:11;;;;;;;4.10;2.92;;;;;;;14.01;73.58;91011.31;5045862;28;20033;-88
2021/09/27 09:02:55;;;;;;;5.68;2.80;;;;;;;14.22;73.42;91014.34;5036299;28;20448;-88
2021/09/27 09:08:13;;;;;;;5.97;2.63;;;;;;;14.24;71.95;91014.75;5122944;22;20521;-90
2021/09/27 09:10:57;;;;;;;5.22;2.38;;;;;;;14.11;72.39;91005.53;5051838;28;20029;-90
2021/09/27 09:13:53;;;;;;;4.40;2.25;;;;;;;14.48;72.92;91018.91;5059472;28;20063;-90
2021/09/27 09:16:20;;;;;;;4.55;2.92;;;;;;;14.47;72.90;91011.38;5031739;28;20033;-90
2021/09/27 09:18:53;;;;;;;3.58;2.33;;;;;;;14.51;70.84;91018.22;5021611;28;20156;-87
2021/09/27 09:21:26;;;;;;;3.17;2.25;;;;;;;14.67;68.74;91015.50;5030072;28;20418;-90
2021/09/27 09:23:56;;;;;;;3.40;2.22;;;;;;;14.66;71.44;91010.59;5033890;28;20474;-89
2021/09/27 09:26:28;;;;;;;4.03;2.25;;;;;;;14.78;68.33;91015.69;5021639;28;20032;-90
2021/09/27 09:28:54;;;;;;;4.63;2.40;;;;;;;14.78;68.61;91019.06;5039217;28;20387;-89
2021/09/27 09:31:22;;;;;;;5.38;2.45;;;;;;;14.94;67.12;91018.16;5053239;28;20029;-89
2021/09/27 09:33:50;;;;;;;2.88;2.03;;;;;;;14.97;68.09;91017.47;5053334;28;20067;-90
2021/09/27 09:36:20;;;;;;;3.30;2.22;;;;;;;14.98;67.95;91018.97;5043225;28;20486;-87
2021/09/27 09:38:46;;;;;;;4.07;2.20;;;;;;;15.14;68.18;91016.97;5023463;28;20030;-90
2021/09/27 09:41:11;;;;;;;3.65;2.40;;;;;;;15.22;68.54;91018.59;5041581;28;20128;-89
2021/09/27 09:43:43;;;;;;;3.03;2.05;;;;;;;15.22;68.76;91015.97;5030538;28;20053;-90
2021/09/27 09:46:15;;;;;;;3.88;2.22;;;;;;;15.38;69.05;91020.31;5042763;28;20051;-88
2021/09/27 09:49:03;;;;;;;3.72;2.10;;;;;;;15.46;66.28;91017.44;5051312;28;20021;-90
2021/09/27 09:51:47;;;;;;;5.13;1.92;;;;;;;15.50;68.54;91020.09;5034605;28;20033;-90
2021/09/27 09:54:18;;;;;;;4.75;2.10;;;;;;;15.65;67.13;91024.41;5041741;28;20027;-90
2021/09/27 09:56:47;;;;;;;2.80;1.77;;;;;;;15.65;64.65;91018.41;5072564;28;20594;-90
2021/09/27 09:59:32;;;;;;;3.67;2.03;;;;;;;15.82;66.48;91019.78;5053524;28;20132;-90
2021/09/27 10:01:57;;;;;;;;;;;;;;;15.74;64.22;91026.81;5039779;28;20078;-89
2021/09/27 10:04:26;;;;;;;3.05;1.80;;;;;;;15.86;64.63;91012.69;5086082;28;19908;-90
2021/09/27 10:07:00;;;;;;;5.10;2.10;;;;;;;15.90;65.58;91016.13;5054145;28;20170;-90
2021/09/27 10:09:35;;;;;;;;;;;;;;;16.07;66.19;91015.56;5037473;28;20024;-90
2021/09/27 10:12:05;;;;;;;3.30;1.70;;;;;;;16.03;61.49;91012.16;5065303;28;20382;-90
2021/09/27 10:14:31;;;;;;;3.05;1.70;;;;;;;16.24;63.75;91012.38;5021121;28;20025;-90
2021/09/27 10:17:24;;;;;;;3.75;1.80;;;;;;;16.32;60.62;91007.94;5053456;28;20032;-90
2021/09/27 10:20:16;;;;;;;2.75;1.65;;;;;;;16.40;61.65;91008.81;5051241;28;20036;-90
2021/09/27 10:22:55;;;;;;;2.42;1.52;;;;;;;16.46;62.69;91002.06;5046250;28;20020;-90
2021/09/27 10:25:39;;;;;;;5.05;2.17;;;;;;;16.63;62.09;91009.38;5053509;28;20024;-90
2021/09/27 10:28:07;;;;;;;3.45;1.90;;;;;;;16.72;60.29;90999.31;5054912;28;20025;-90
2021/09/27 10:30:46;;;;;;;3.15;1.90;;;;;;;16.85;60.50;91002.44;5071584;28;20052;-92
2021/09/27 10:33:32;;;;;;;2.75;1.70;;;;;;;16.77;61.49;91002.78;5046959;28;20013;-93
2021/09/27 10:36:16;;;;;;;2.70;1.60;;;;;;;16.84;60.75;91002.81;5045240;28;20025;-89
2021/09/27 10:38:45;;;;;;;3.25;2.00;;;;;;;16.80;60.50;90994.16;5049054;28;20095;-88
2021/09/27 10:41:24;;;;;;;4.82;2.05;;;;;;;16.99;59.82;90999.19;5018208;28;20025;-91
2021/09/27 10:43:51;;;;;;;2.33;1.70;;;;;;;17.18;60.51;91006.84;5034281;28;20029;-90
2021/09/27 10:46:17;;;;;;;3.53;1.77;;;;;;;17.17;58.34;90994.03;5044860;28;20032;-90
2021/09/27 10:48:47;;;;;;;2.25;1.50;;;;;;;17.19;59.46;91000.47;5036543;28;20060;-91
2021/09/27 10:51:13;;;;;;;2.78;1.45;;;;;;;17.04;57.39;90987.56;5021606;28;20509;-90
2021/09/27 10:53:50;;;;;;;1.90;1.50;;;;;;;17.09;58.11;90998.50;5029514;28;20025;-91
2021/09/27 10:56:32;;;;;;;4.30;1.58;;;;;;;17.18;56.91;90991.06;5021264;28;20029;-89
2021/09/27 10:58:59;;;;;;;2.30;1.50;;;;;;;17.13;58.30;90994.00;5030757;28;20040;-90
2021/09/27 11:01:34;;;;;;;3.15;1.45;;;;;;;17.16;56.76;90995.91;5021928;28;20049;-90
2021/09/27 11:04:00;;;;;;;2.70;1.45;;;;;;;17.02;56.42;91000.34;5029228;28;20025;-90
2021/09/27 11:06:55;;;;;;;1.95;1.20;;;;;;;17.05;56.92;90997.72;5054735;28;20032;-89
2021/09/27 11:09:28;;;;;;;;;;;;;;;17.08;57.20;91001.50;5041826;28;20013;-90
2021/09/27 11:12:07;;;;;;;2.42;1.52;;;;;;;17.36;57.33;90987.78;5067877;28;20293;-90
2021/09/27 11:14:37;;;;;;;2.42;1.45;;;;;;;17.51;57.04;90996.53;5033526;28;20449;-90
2021/09/27 11:17:06;;;;;;;3.55;1.55;;;;;;;17.57;56.59;91006.34;5074294;28;20082;-90
2021/09/27 11:19:34;;;;;;;3.80;1.50;;;;;;;17.66;55.78;91008.63;5065517;28;20032;-90
2021/09/27 11:22:14;;;;;;;3.13;1.73;;;;;;;17.79;54.73;91009.88;5054564;28;20032;-90
2021/09/27 11:25:02;;;;;;;2.25;1.52;;;;;;;17.82;57.41;91003.88;5053669;28;20036;-90
2021/09/27 11:27:33;;;;;;;2.47;1.52;;;;;;;18.27;56.91;90995.72;5021743;28;20032;-90
2021/09/27 11:30:24;;;;;;;3.08;2.13;;;;;;;18.36;54.64;91004.06;5017252;28;20489;-90
2021/09/27 11:32:56;;;;;;;2.42;1.50;;;;;;;18.33;55.79;90997.63;5047149;28;20502;-91
2021/09/27 11:35:34;;;;;;;4.88;1.67;;;;;;;18.38;54.37;90999.16;5035325;28;20033;-87
2021/09/27 11:38:05;;;;;;;4.35;2.10;;;;;;;18.62;57.36;90995.81;5035666;28;20125;-89
2021/09/27 11:40:33;;;;;;;3.05;1.80;;;;;;;18.62;55.61;90995.81;5051881;28;20116;-89
2021/09/27 11:43:25;;;;;;;2.55;2.00;;;;;;;18.63;56.99;90997.31;5018664;28;20029;-90
2021/09/27 11:45:56;;;;;;;3.50;1.92;;;;;;;18.66;55.94;90987.91;5060723;28;20018;-91
2021/09/27 11:49:01;;;;;;;3.90;1.85;;;;;;;18.63;55.18;90997.31;5061824;28;20108;-90
2021/09/27 11:51:37;;;;;;;3.03;1.80;;;;;;;18.62;55.14;90985.28;5035484;28;20580;-91
2021/09/27 11:54:13;;;;;;;2.50;1.77;;;;;;;18.39;56.89;90992.75;5035370;28;20048;-91
2021/09/27 11:56:40;;;;;;;4.35;1.92;;;;;;;18.32;56.50;90993.50;5035689;28;20043;-90
2021/09/27 11:59:22;;;;;;;3.60;2.13;;;;;;;18.29;56.31;90996.13;5042187;28;20105;-90
2021/09/27 12:02:03;;;;;;;3.22;2.00;;;;;;;18.08;57.33;90994.91;5026638;28;20026;-90
2021/09/27 12:04:42;;;;;;;3.03;2.00;;;;;;;18.01;57.62;90992.25;5043197;28;20112;-90
2021/09/27 12:07:10;;;;;;;3.10;2.00;;;;;;;17.96;58.50;91003.19;5037128;28;20036;-92
2021/09/27 12:09:39;;;;;;;3.17;2.00;;;;;;;17.95;58.22;91004.31;5042764;28;20034;-90
2021/09/27 12:12:06;;;;;;;3.05;2.08;;;;;;;17.90;59.74;91013.31;5017270;28;20021;-91
2021/09/27 12:14:35;;;;;;;4.13;2.47;;;;;;;18.04;58.25;91014.50;5022635;28;20025;-90
2021/09/27 12:17:02;;;;;;;4.65;2.00;;;;;;;17.73;59.28;91021.09;5035302;28;20041;-91